createdAt,value
2023-01-06T00:06:50.813Z,8.03
2023-01-06T00:09:18.031Z,8.13
2023-01-06T00:11:45.549Z,4.20
2023-01-06T00:14:12.994Z,7.73
2023-01-06T00:16:40.187Z,6.43
2023-01-06T00:58:42.494Z,7.33
2023-01-06T01:01:10.599Z,6.83
2023-01-06T01:03:39.107Z,5.27
2023-01-06T01:06:24.865Z,6.70
2023-01-06T01:09:13.384Z,12.33
2023-01-06T01:11:40.723Z,4.57
2023-01-06T01:14:09.483Z,4.03
2023-01-06T01:16:36.793Z,6.60
2023-01-06T01:19:04.245Z,6.57
2023-01-06T01:21:31.453Z,5.03
2023-01-06T01:24:14.161Z,6.60
2023-01-06T01:26:41.472Z,10.00
2023-01-06T01:29:11.748Z,8.10
2023-01-06T01:31:38.988Z,7.70
2023-01-06T01:38:00.038Z,6.70
2023-01-06T01:40:27.271Z,6.53
2023-01-06T01:42:54.610Z,5.47
2023-01-06T01:45:24.447Z,7.17
2023-01-06T01:47:53.322Z,5.07
2023-01-06T01:50:31.629Z,6.10
2023-01-06T02:45:35.880Z,3.90
2023-01-06T02:48:09.537Z,3.70
2023-01-06T02:50:41.047Z,3.90
2023-01-06T02:53:12.099Z,10.37
2023-01-06T02:55:44.030Z,7.77
2023-01-06T02:58:13.787Z,9.67
2023-01-06T03:00:44.160Z,5.10
2023-01-06T03:03:16.517Z,5.00
2023-01-06T03:05:46.021Z,5.40
2023-01-06T03:08:16.310Z,10.17
2023-01-06T03:10:45.431Z,4.80
2023-01-06T03:13:17.884Z,6.10
2023-01-06T03:15:47.097Z,7.63
2023-01-06T03:18:14.873Z,4.43
2023-01-06T03:20:42.371Z,4.03
2023-01-06T03:23:09.730Z,4.07
2023-01-06T03:25:38.600Z,6.30
2023-01-06T03:28:06.618Z,5.57
2023-01-06T03:30:38.167Z,3.90
2023-01-06T03:33:12.670Z,8.93
2023-01-06T03:35:56.537Z,5.40
2023-01-06T03:38:29.856Z,5.53
2023-01-06T03:41:00.156Z,5.20
2023-01-06T04:14:55.934Z,2.97
2023-01-06T04:17:23.425Z,4.30
2023-01-06T04:19:51.625Z,3.57
2023-01-06T04:22:20.488Z,6.90
2023-01-06T04:24:47.897Z,4.97
2023-01-06T04:44:12.992Z,3.20
2023-01-06T04:46:40.331Z,4.53
2023-01-06T04:49:07.706Z,3.83
2023-01-06T04:51:34.969Z,3.17
2023-01-06T04:54:02.341Z,4.17
2023-01-06T04:56:29.738Z,4.73
2023-01-06T04:58:57.419Z,2.93
2023-01-06T05:01:26.613Z,6.63
2023-01-06T05:03:54.247Z,5.03
2023-01-06T05:06:21.656Z,4.70
2023-01-06T05:08:48.980Z,3.67
2023-01-06T05:11:17.621Z,5.10
2023-01-06T05:13:44.938Z,4.77
2023-01-06T05:16:15.357Z,2.90
2023-01-06T05:18:44.226Z,5.40
2023-01-06T05:21:11.598Z,3.23
2023-01-06T05:23:38.919Z,2.70
2023-01-06T05:26:06.404Z,3.77
2023-01-06T06:03:09.520Z,3.17
2023-01-06T06:05:36.782Z,4.53
2023-01-06T06:08:04.078Z,3.23
2023-01-06T06:10:31.272Z,3.87
2023-01-06T06:16:52.422Z,2.83
2023-01-06T06:19:21.120Z,3.97
2023-01-06T06:21:48.398Z,2.83
2023-01-06T06:24:15.931Z,2.63
2023-01-06T06:26:43.205Z,3.97
2023-01-06T06:29:10.520Z,2.23
2023-01-06T07:31:48.523Z,10.53
2023-01-06T07:34:15.793Z,13.10
2023-01-06T07:36:43.066Z,16.07
2023-01-06T07:39:10.275Z,11.17
2023-01-06T07:41:37.494Z,8.37
2023-01-06T07:44:08.510Z,12.07
2023-01-06T07:47:01.025Z,10.00
2023-01-06T07:49:30.431Z,9.83
2023-01-06T07:51:57.820Z,10.40
2023-01-06T07:54:25.184Z,11.17
2023-01-06T07:56:52.426Z,5.47
2023-01-06T07:59:19.677Z,8.90
2023-01-06T08:01:47.200Z,8.20
2023-01-06T08:21:08.615Z,5.80
2023-01-06T08:23:36.776Z,5.03
2023-01-06T08:26:04.509Z,7.70
2023-01-06T08:28:32.037Z,4.73
2023-01-06T08:30:59.411Z,8.97
2023-01-06T08:33:26.795Z,5.47
2023-01-06T08:35:58.471Z,6.87
2023-01-06T08:38:27.197Z,3.60
2023-01-06T08:40:54.459Z,8.47
2023-01-06T08:43:21.846Z,6.03
2023-01-06T08:45:49.219Z,8.47
2023-01-06T08:48:16.508Z,4.93
2023-01-06T08:50:46.396Z,7.30
2023-01-06T08:53:35.505Z,12.67
2023-01-06T08:56:04.355Z,6.67
2023-01-06T08:58:31.715Z,9.20
2023-01-06T09:00:59.100Z,5.87
2023-01-06T09:03:26.388Z,7.57
2023-01-06T09:05:54.262Z,7.70
2023-01-06T10:12:06.857Z,11.27
2023-01-06T10:14:39.373Z,5.77
2023-01-06T10:17:17.554Z,3.33
2023-01-06T10:19:51.370Z,6.23
2023-01-06T10:22:23.522Z,5.90
2023-01-06T10:24:54.204Z,3.07
2023-01-06T10:27:26.460Z,7.93
2023-01-06T10:29:55.322Z,6.43
2023-01-06T10:32:22.958Z,6.53
2023-01-06T10:34:52.590Z,5.70
2023-01-06T10:37:24.360Z,3.77
2023-01-06T10:39:56.539Z,3.83
2023-01-06T10:42:27.937Z,6.33
2023-01-06T10:44:55.165Z,5.70
2023-01-06T10:47:25.051Z,9.53
2023-01-06T10:49:52.535Z,6.73
2023-01-06T10:52:20.361Z,6.13
2023-01-06T10:54:48.763Z,11.87
2023-01-06T10:57:20.532Z,7.70
2023-01-06T11:00:06.598Z,8.87
2023-01-06T11:02:35.347Z,4.93
2023-01-06T11:05:03.479Z,9.10
2023-01-06T11:10:44.360Z,3.90
2023-01-06T11:13:22.010Z,1.80
2023-01-06T11:15:49.696Z,7.73
2023-01-06T11:18:22.630Z,6.40
2023-01-06T11:21:02.229Z,9.63
2023-01-06T11:23:49.437Z,6.83
2023-01-06T11:26:18.169Z,7.30
2023-01-06T11:28:45.860Z,6.40
2023-01-06T11:31:17.798Z,7.60
2023-01-06T11:34:19.405Z,8.80
2023-01-06T11:37:05.216Z,5.57
2023-01-06T11:39:36.105Z,3.03
2023-01-06T11:42:04.874Z,2.23
2023-01-06T11:44:33.417Z,6.87
2023-01-06T11:47:02.117Z,3.87
2023-01-06T11:49:30.837Z,7.70
2023-01-06T11:52:21.075Z,8.63
2023-01-06T11:54:57.076Z,5.23
2023-01-06T11:57:29.479Z,8.23
2023-01-06T12:00:09.332Z,3.87
2023-01-06T12:06:32.476Z,7.27
2023-01-06T12:09:46.151Z,5.87
2023-01-06T12:12:18.125Z,5.83
2023-01-06T12:14:46.288Z,7.90
2023-01-06T12:17:16.371Z,4.87
2023-01-06T12:19:46.266Z,5.13
2023-01-06T12:22:34.552Z,6.13
2023-01-06T12:25:02.071Z,5.03
2023-01-06T12:27:36.116Z,5.60
2023-01-06T12:30:05.655Z,2.77
2023-01-06T12:39:40.538Z,3.73
2023-01-06T12:42:12.346Z,6.13
2023-01-06T12:44:44.136Z,5.53
2023-01-06T12:47:14.038Z,9.20
2023-01-06T12:49:43.999Z,4.23
2023-01-06T12:52:25.079Z,4.03
2023-01-06T12:54:53.519Z,3.47
2023-01-06T12:57:27.457Z,5.40
2023-01-06T13:00:04.099Z,5.87
2023-01-06T13:02:53.319Z,5.70
2023-01-06T13:05:42.423Z,3.87
2023-01-06T13:08:17.335Z,6.37
2023-01-06T13:10:46.608Z,7.77
2023-01-06T13:13:31.817Z,6.70
2023-01-06T13:16:01.947Z,4.90
2023-01-06T13:18:33.243Z,4.97
2023-01-06T13:21:03.248Z,6.67
2023-01-06T14:00:15.829Z,5.90
2023-01-06T14:03:00.140Z,5.40
2023-01-06T14:05:46.029Z,5.90
2023-01-06T14:08:35.077Z,4.53
2023-01-06T14:11:21.401Z,5.83
2023-01-06T14:13:50.894Z,5.13
2023-01-06T14:16:19.784Z,6.57
2023-01-06T14:18:48.162Z,4.23
2023-01-06T14:21:27.503Z,2.37
2023-01-06T14:24:00.082Z,5.17
2023-01-06T14:43:20.900Z,6.20
2023-01-06T14:45:48.955Z,5.67
2023-01-06T14:48:17.528Z,5.30
2023-01-06T14:50:47.761Z,5.93
2023-01-06T14:53:19.597Z,7.67
2023-01-06T15:26:56.802Z,6.77
2023-01-06T15:29:26.057Z,7.37
2023-01-06T15:31:54.201Z,5.07
2023-01-06T15:34:22.659Z,6.57
2023-01-06T15:37:09.656Z,7.83
2023-01-06T15:39:39.309Z,4.20
2023-01-06T15:42:09.796Z,12.23
2023-01-06T15:44:39.435Z,7.50
2023-01-06T15:47:09.511Z,11.37
2023-01-06T15:49:38.413Z,9.40
2023-01-06T15:52:06.419Z,8.50
2023-01-06T16:28:20.305Z,7.90
2023-01-06T16:31:02.532Z,4.37
2023-01-06T16:33:34.704Z,5.53
2023-01-06T16:36:01.951Z,5.10
2023-01-06T16:38:29.174Z,6.70
2023-01-06T16:40:56.501Z,8.67
2023-01-06T16:43:25.468Z,4.90
2023-01-06T16:45:53.212Z,8.80
2023-01-06T16:48:20.519Z,5.73
2023-01-06T16:51:09.421Z,9.87
2023-01-06T16:56:36.604Z,5.77
2023-01-06T16:59:09.296Z,8.27
2023-01-06T17:01:36.697Z,10.83
2023-01-06T17:04:04.095Z,6.43
2023-01-06T17:06:31.918Z,9.03
2023-01-06T17:57:32.416Z,13.17
2023-01-06T17:59:59.648Z,8.87
2023-01-06T18:02:35.481Z,15.00
2023-01-06T18:05:11.419Z,9.30
2023-01-06T18:07:38.778Z,9.13
2023-01-06T18:10:11.744Z,11.00
2023-01-06T18:12:40.474Z,7.23
2023-01-06T18:15:22.983Z,8.17
2023-01-06T18:17:50.234Z,11.27
2023-01-06T18:20:17.881Z,9.00
2023-01-06T18:22:45.283Z,8.13
2023-01-06T18:25:17.586Z,7.87
2023-01-06T18:27:46.260Z,9.73
2023-01-06T18:30:17.148Z,11.10
2023-01-06T18:32:44.821Z,9.77
2023-01-06T18:35:16.732Z,9.73
2023-01-06T19:00:27.717Z,14.30
2023-01-06T19:02:57.440Z,13.77
2023-01-06T19:05:26.121Z,14.70
2023-01-06T19:07:54.769Z,13.30
2023-01-06T19:10:24.657Z,13.63
2023-01-06T20:03:29.616Z,10.40
2023-01-06T20:05:56.872Z,9.17
2023-01-06T20:08:24.185Z,11.07
2023-01-06T20:10:51.464Z,11.23
2023-01-06T20:13:18.800Z,10.57
2023-01-06T20:15:46.059Z,10.37
2023-01-06T20:18:13.332Z,10.87
2023-01-06T20:20:43.950Z,10.73
2023-01-06T20:23:11.265Z,10.83
2023-01-06T20:25:38.476Z,11.13
2023-01-06T20:28:39.910Z,10.60
2023-01-06T20:31:25.817Z,11.33
2023-01-06T20:33:53.114Z,11.10
2023-01-06T20:36:21.657Z,9.23
2023-01-06T20:38:48.928Z,10.10
2023-01-06T20:41:16.283Z,10.57
2023-01-06T20:43:43.548Z,11.53
2023-01-06T20:46:20.096Z,10.63
2023-01-06T20:48:47.732Z,10.60
2023-01-06T20:51:15.103Z,13.40
2023-01-06T20:53:43.675Z,10.40
2023-01-06T20:56:24.956Z,10.97
2023-01-06T20:59:15.097Z,11.50
2023-01-06T21:01:42.723Z,10.23
2023-01-06T21:04:10.081Z,10.53
2023-01-06T21:06:37.351Z,13.27
2023-01-06T21:09:05.958Z,11.50
2023-01-06T21:11:33.274Z,10.50
2023-01-06T21:14:01.708Z,11.27
2023-01-06T21:16:29.042Z,12.90
2023-01-06T21:18:56.307Z,13.40
2023-01-06T21:21:23.592Z,12.13
2023-01-06T21:23:50.877Z,11.17
2023-01-06T21:26:22.504Z,12.57
2023-01-06T21:28:49.779Z,12.17
2023-01-06T21:31:37.606Z,13.50
2023-01-06T21:34:04.805Z,12.57
2023-01-06T21:36:35.260Z,12.93
2023-01-06T21:39:02.525Z,14.07
2023-01-06T21:41:31.169Z,14.10
2023-01-06T21:43:58.423Z,15.13
2023-01-06T21:46:25.715Z,15.50
2023-01-06T21:48:52.977Z,14.47
2023-01-06T21:51:20.520Z,13.53
2023-01-06T21:53:47.947Z,14.60
2023-01-06T21:56:15.225Z,13.90
2023-01-06T21:58:44.273Z,12.60
2023-01-06T22:05:05.832Z,11.97
2023-01-06T22:07:34.547Z,12.00
2023-01-06T22:10:04.417Z,10.93
2023-01-06T22:12:33.067Z,10.77
2023-01-06T22:15:01.894Z,11.10
2023-01-06T22:17:47.498Z,10.77
2023-01-06T22:20:14.862Z,10.33
2023-01-06T22:22:42.309Z,10.43
2023-01-06T22:25:09.713Z,10.40
2023-01-06T22:27:37.045Z,10.00
2023-01-06T22:30:06.216Z,9.30
2023-01-06T22:32:52.373Z,9.33
2023-01-06T22:35:19.672Z,10.10
2023-01-06T22:37:46.929Z,13.90
2023-01-06T22:40:15.016Z,10.00
2023-01-06T22:46:13.310Z,9.50
2023-01-06T22:48:40.701Z,8.77
2023-01-06T22:51:08.051Z,7.63
2023-01-06T22:53:35.325Z,7.80
2023-01-06T22:56:03.674Z,9.40
2023-01-06T22:58:31.613Z,8.30
2023-01-06T23:01:17.850Z,7.90
2023-01-06T23:03:46.618Z,8.27
2023-01-06T23:06:15.000Z,8.97
2023-01-06T23:08:58.432Z,8.90
2023-01-06T23:15:02.848Z,7.83
2023-01-06T23:17:30.254Z,8.57
2023-01-06T23:19:58.835Z,8.40
2023-01-06T23:22:26.067Z,8.07
2023-01-06T23:24:53.360Z,8.17
2023-01-06T23:27:20.572Z,8.13
